Time;durP1;ratioP1;P1;durP2;ratioP2;P2;SDS_P1;SDS_P2;PMS_P1;PMS_P2;Temp;Humidity;BMP_temperature;BMP_pressure;BME280_temperature;BME280_humidity;BME280_pressure;Samples;Min_cycle;Max_cycle;Signal;HPM_P1;HPM_P2
2020/12/15 00:00:07;;;;;;;8.60;4.53;;;;;;;4.74;100.00;100183.94;5234838;28;20029;-79
2020/12/15 00:02:37;;;;;;;5.78;4.22;;;;;;;4.79;100.00;100184.75;5226685;28;20032;-78
2020/12/15 00:05:08;;;;;;;8.63;4.75;;;;;;;4.90;100.00;100188.84;5225875;28;20123;-79
2020/12/15 00:07:38;;;;;;;7.72;4.80;;;;;;;5.06;100.00;100195.44;5226923;28;20025;-80
2020/12/15 00:10:08;;;;;;;7.05;4.65;;;;;;;5.23;100.00;100189.91;5226772;28;20060;-79
2020/12/15 00:12:38;;;;;;;6.55;4.88;;;;;;;5.14;100.00;100187.50;5229050;28;20119;-79
2020/12/15 00:15:09;;;;;;;7.93;5.35;;;;;;;5.13;100.00;100186.63;5228006;28;20375;-79
2020/12/15 00:17:39;;;;;;;10.05;5.60;;;;;;;5.20;100.00;100193.41;5244969;28;20493;-78
2020/12/15 00:20:10;;;;;;;7.28;5.53;;;;;;;5.23;100.00;100184.72;5243353;28;20468;-78
2020/12/15 00:22:41;;;;;;;9.43;5.38;;;;;;;5.27;100.00;100187.22;5227222;28;20105;-79
2020/12/15 00:25:11;;;;;;;8.57;5.35;;;;;;;5.29;100.00;100172.50;5226904;28;20021;-80
2020/12/15 00:27:41;;;;;;;8.30;4.82;;;;;;;5.29;100.00;100179.44;5226913;28;20067;-79
2020/12/15 00:30:13;;;;;;;7.45;4.72;;;;;;;5.33;100.00;100174.13;5226956;28;20017;-79
2020/12/15 00:32:48;;;;;;;6.70;4.40;;;;;;;5.28;100.00;100177.69;5227707;28;20104;-80
2020/12/15 00:35:18;;;;;;;6.90;4.22;;;;;;;4.89;100.00;100181.94;5224883;28;20086;-79
2020/12/15 00:37:48;;;;;;;6.63;3.75;;;;;;;4.90;100.00;100183.66;5227635;28;20033;-79
2020/12/15 00:40:18;;;;;;;5.18;3.40;;;;;;;4.92;100.00;100174.13;5226759;28;20032;-79
2020/12/15 00:42:49;;;;;;;6.05;3.28;;;;;;;4.90;100.00;100170.72;5227477;28;20096;-78
2020/12/15 00:45:19;;;;;;;4.57;3.30;;;;;;;4.81;100.00;100172.63;5225615;28;20025;-78
2020/12/15 00:47:51;;;;;;;5.38;3.20;;;;;;;4.94;100.00;100172.34;5226391;28;20044;-79
2020/12/15 00:50:21;;;;;;;5.95;3.60;;;;;;;4.84;100.00;100167.38;5224387;28;20183;-78
2020/12/15 00:52:52;;;;;;;7.00;3.40;;;;;;;4.62;100.00;100161.75;5240532;28;20029;-80
2020/12/15 00:55:22;;;;;;;5.20;3.80;;;;;;;4.63;100.00;100158.28;5223932;28;20097;-79
2020/12/15 00:57:52;;;;;;;5.15;3.45;;;;;;;4.46;100.00;100154.31;5224382;28;20033;-78
2020/12/15 01:00:23;;;;;;;5.32;3.67;;;;;;;4.58;100.00;100147.16;5240165;28;20075;-79
2020/12/15 01:02:53;;;;;;;6.68;4.30;;;;;;;4.51;100.00;100148.19;5226554;28;20055;-78
2020/12/15 01:05:25;;;;;;;7.95;3.63;;;;;;;4.68;100.00;100147.84;5223871;28;20043;-79
2020/12/15 01:07:55;;;;;;;6.32;3.45;;;;;;;4.47;100.00;100140.50;5223767;28;20025;-78
2020/12/15 01:10:25;;;;;;;5.07;3.35;;;;;;;4.40;100.00;100142.31;5223430;28;20016;-79
2020/12/15 01:12:55;;;;;;;5.15;3.47;;;;;;;4.46;100.00;100139.63;5228642;28;20089;-79
2020/12/15 01:15:26;;;;;;;5.60;3.22;;;;;;;4.58;100.00;100134.22;5222450;28;20018;-79
2020/12/15 01:17:56;;;;;;;6.72;3.28;;;;;;;4.36;100.00;100120.00;5256963;28;20112;-79
2020/12/15 01:20:26;;;;;;;5.68;4.00;;;;;;;4.48;100.00;100124.09;5240911;28;20502;-79
2020/12/15 01:22:57;;;;;;;7.22;3.63;;;;;;;4.53;100.00;100119.66;5225382;28;20041;-80
2020/12/15 01:25:27;;;;;;;6.95;4.07;;;;;;;4.71;100.00;100120.19;5225334;28;20021;-79
2020/12/15 01:27:57;;;;;;;6.47;3.78;;;;;;;4.64;100.00;100118.56;5225150;28;20017;-79
2020/12/15 01:30:28;;;;;;;5.03;3.80;;;;;;;4.66;100.00;100124.56;5240373;28;20039;-80
2020/12/15 01:32:58;;;;;;;4.63;3.40;;;;;;;4.71;100.00;100121.91;5224515;28;20021;-81
2020/12/15 01:35:28;;;;;;;6.75;4.70;;;;;;;4.71;100.00;100132.25;5255684;28;20033;-80
2020/12/15 01:37:58;;;;;;;6.97;4.03;;;;;;;4.69;100.00;100121.09;5223294;28;20029;-80
2020/12/15 01:40:29;;;;;;;8.68;4.65;;;;;;;4.76;100.00;100139.06;5224458;28;20521;-80
2020/12/15 01:42:59;;;;;;;7.05;4.53;;;;;;;4.83;100.00;100137.22;5219131;28;20025;-79
2020/12/15 01:45:30;;;;;;;7.93;4.90;;;;;;;4.80;100.00;100135.53;5240496;28;20071;-79
2020/12/15 01:48:00;;;;;;;7.38;5.28;;;;;;;4.74;100.00;100143.41;5230180;28;20104;-80
2020/12/15 01:50:31;;;;;;;6.50;4.65;;;;;;;4.72;100.00;100134.81;5224944;28;20021;-79
2020/12/15 01:53:06;;;;;;;8.07;5.63;;;;;;;4.70;100.00;100136.59;5224872;28;20055;-79
2020/12/15 01:55:38;;;;;;;8.07;5.47;;;;;;;4.79;100.00;100131.22;5224123;28;20017;-80
2020/12/15 01:58:09;;;;;;;7.60;5.50;;;;;;;4.79;100.00;100122.63;5240821;28;20013;-80
2020/12/15 02:00:39;;;;;;;7.80;5.45;;;;;;;4.85;100.00;100117.31;5229830;28;20017;-79
2020/12/15 02:03:10;;;;;;;9.50;5.72;;;;;;;4.89;100.00;100118.94;5225075;28;20021;-79
2020/12/15 02:05:40;;;;;;;7.15;5.22;;;;;;;4.95;100.00;100117.09;5224651;28;20044;-79
2020/12/15 02:08:10;;;;;;;8.27;5.60;;;;;;;5.02;100.00;100110.94;5225456;28;20024;-80
2020/12/15 02:10:41;;;;;;;9.45;5.63;;;;;;;5.14;100.00;100109.81;5223582;28;20025;-79
2020/12/15 02:13:12;;;;;;;7.82;5.55;;;;;;;5.09;100.00;100109.91;5224933;28;20063;-79
2020/12/15 02:15:42;;;;;;;7.78;5.13;;;;;;;5.10;100.00;100109.00;5223275;28;20032;-78
2020/12/15 02:18:13;;;;;;;7.65;5.50;;;;;;;5.16;100.00;100093.34;5256910;28;20467;-79
2020/12/15 02:20:44;;;;;;;9.00;5.90;;;;;;;5.19;100.00;100090.66;5239816;22;20150;-81
2020/12/15 02:23:14;;;;;;;9.35;6.50;;;;;;;5.20;100.00;100082.06;5222142;28;20039;-80
2020/12/15 02:25:45;;;;;;;12.05;7.32;;;;;;;5.23;100.00;100081.09;5231534;28;20016;-83
2020/12/15 02:28:15;;;;;;;10.27;6.40;;;;;;;5.33;100.00;100074.84;5244220;28;20056;-82
2020/12/15 02:30:46;;;;;;;10.45;6.25;;;;;;;5.64;100.00;100076.69;5243646;28;20053;-80
2020/12/15 02:33:16;;;;;;;7.97;6.22;;;;;;;5.69;100.00;100080.00;5244206;28;20471;-79
2020/12/15 02:35:46;;;;;;;7.75;5.78;;;;;;;5.79;100.00;100076.34;5233779;28;20086;-79
2020/12/15 02:38:16;;;;;;;10.15;6.20;;;;;;;5.70;100.00;100072.22;5222584;28;20028;-79
2020/12/15 02:40:47;;;;;;;8.50;6.32;;;;;;;5.72;100.00;100069.59;5223161;28;20117;-82
2020/12/15 02:43:17;;;;;;;8.68;6.45;;;;;;;5.70;100.00;100067.03;5223172;28;20025;-83
2020/12/15 02:45:47;;;;;;;9.13;6.03;;;;;;;5.72;100.00;100070.44;5223164;28;20021;-82
2020/12/15 02:48:17;;;;;;;8.57;6.10;;;;;;;5.70;100.00;100066.16;5223067;28;20390;-83
2020/12/15 02:50:48;;;;;;;9.68;7.07;;;;;;;5.69;100.00;100069.66;5223662;28;20020;-82
2020/12/15 02:53:18;;;;;;;12.15;6.47;;;;;;;5.73;100.00;100066.13;5223286;28;20051;-81
2020/12/15 02:55:48;;;;;;;9.10;6.85;;;;;;;5.69;100.00;100067.06;5223281;28;20040;-80
2020/12/15 02:58:18;;;;;;;9.68;6.68;;;;;;;5.73;100.00;100066.94;5223781;28;20151;-80
2020/12/15 03:00:49;;;;;;;10.45;6.53;;;;;;;5.85;100.00;100068.41;5222994;28;20029;-79
2020/12/15 03:03:19;;;;;;;9.30;7.03;;;;;;;5.76;100.00;100072.06;5223229;28;20021;-79
2020/12/15 03:05:49;;;;;;;10.10;7.00;;;;;;;5.75;100.00;100066.94;5222446;28;20410;-81
2020/12/15 03:08:19;;;;;;;10.57;6.78;;;;;;;5.81;100.00;100066.78;5221341;28;20024;-81
2020/12/15 03:10:50;;;;;;;11.50;7.60;;;;;;;5.95;100.00;100070.75;5225603;28;20107;-80
2020/12/15 03:13:20;;;;;;;12.55;7.10;;;;;;;5.95;100.00;100064.72;5225459;28;20063;-81
2020/12/15 03:15:50;;;;;;;9.70;7.40;;;;;;;6.04;100.00;100067.94;5225968;28;20111;-81
2020/12/15 03:18:21;;;;;;;10.30;7.45;;;;;;;6.09;100.00;100071.25;5225913;28;20559;-80
2020/12/15 03:20:52;;;;;;;9.70;7.10;;;;;;;6.08;100.00;100073.91;5226388;28;20047;-80
2020/12/15 03:23:23;;;;;;;9.48;6.78;;;;;;;6.10;100.00;100072.13;5226272;28;20534;-80
2020/12/15 03:25:53;;;;;;;11.35;7.97;;;;;;;6.06;100.00;100068.75;5226215;28;20179;-80
2020/12/15 03:28:23;;;;;;;10.95;7.40;;;;;;;6.05;100.00;100064.44;5225300;28;20021;-80
2020/12/15 03:30:54;;;;;;;9.90;7.10;;;;;;;6.10;100.00;100079.91;5224964;28;20029;-81
2020/12/15 03:33:24;;;;;;;11.65;7.47;;;;;;;6.03;100.00;100073.13;5225915;28;20032;-81
2020/12/15 03:35:54;;;;;;;10.05;7.43;;;;;;;6.07;100.00;100072.19;5226177;28;20020;-80
2020/12/15 03:38:24;;;;;;;12.50;7.22;;;;;;;6.10;100.00;100066.94;5226374;28;20382;-81
2020/12/15 03:40:55;;;;;;;10.05;7.75;;;;;;;6.09;100.00;100067.81;5225709;28;20028;-80
2020/12/15 03:43:25;;;;;;;11.30;7.60;;;;;;;6.07;100.00;100072.19;5224161;28;20037;-81
2020/12/15 03:45:55;;;;;;;12.77;7.93;;;;;;;6.01;100.00;100061.97;5224547;28;20027;-81
2020/12/15 03:48:26;;;;;;;11.23;7.82;;;;;;;5.95;100.00;100062.13;5223852;28;20082;-80
2020/12/15 03:50:56;;;;;;;12.25;7.90;;;;;;;6.03;100.00;100060.19;5224990;28;20029;-80
2020/12/15 03:53:26;;;;;;;10.20;7.28;;;;;;;6.07;100.00;100051.44;5225858;28;20036;-81
2020/12/15 03:55:57;;;;;;;9.52;7.45;;;;;;;6.06;100.00;100052.34;5225301;28;20039;-80
2020/12/15 03:58:27;;;;;;;10.02;7.53;;;;;;;6.13;100.00;100040.91;5225444;28;20625;-80
2020/12/15 04:00:57;;;;;;;10.90;7.00;;;;;;;6.17;100.00;100050.31;5225176;28;20490;-81
2020/12/15 04:03:28;;;;;;;9.98;7.35;;;;;;;6.24;100.00;100046.66;5224722;28;20411;-81
2020/12/15 04:05:58;;;;;;;9.63;7.20;;;;;;;6.22;100.00;100049.28;5225117;28;20029;-81
2020/12/15 04:08:29;;;;;;;9.05;6.60;;;;;;;6.20;100.00;100043.31;5225335;28;20029;-81
2020/12/15 04:10:59;;;;;;;10.23;6.65;;;;;;;6.26;100.00;100047.47;5225513;28;20029;-80
2020/12/15 04:13:29;;;;;;;8.75;5.82;;;;;;;6.33;100.00;100042.09;5224791;28;20654;-81
2020/12/15 04:15:59;;;;;;;8.40;6.03;;;;;;;6.38;100.00;100057.50;5225511;28;20417;-81
2020/12/15 04:18:30;;;;;;;7.43;5.53;;;;;;;6.34;100.00;100072.31;5225184;28;20097;-81
2020/12/15 04:21:00;;;;;;;6.75;5.25;;;;;;;6.39;100.00;100061.84;5222430;28;20898;-81
2020/12/15 04:23:30;;;;;;;7.50;5.47;;;;;;;6.50;100.00;100067.56;5224825;28;20398;-81
2020/12/15 04:26:01;;;;;;;6.93;5.13;;;;;;;6.55;100.00;100068.28;5225168;28;20056;-81
2020/12/15 04:28:31;;;;;;;6.55;5.30;;;;;;;6.62;100.00;100083.66;5225063;28;20098;-81
2020/12/15 04:31:02;;;;;;;5.95;4.68;;;;;;;6.65;100.00;100083.59;5224858;28;20029;-81
2020/12/15 04:33:32;;;;;;;6.90;4.47;;;;;;;6.64;100.00;100078.44;5224837;28;20029;-81
2020/12/15 04:36:03;;;;;;;6.55;4.78;;;;;;;6.66;100.00;100087.00;5225047;28;20029;-80
2020/12/15 04:38:33;;;;;;;6.45;4.40;;;;;;;6.65;100.00;100095.69;5225382;28;20648;-80
2020/12/15 04:41:03;;;;;;;6.70;4.50;;;;;;;6.60;100.00;100089.78;5225179;28;20098;-81
2020/12/15 04:43:35;;;;;;;6.32;4.70;;;;;;;6.67;100.00;100088.72;5223763;28;20021;-81
2020/12/15 04:46:08;;;;;;;5.53;4.63;;;;;;;6.78;100.00;100084.94;5223764;28;20029;-81
2020/12/15 04:48:47;;;;;;;6.57;4.95;;;;;;;6.81;100.00;100095.25;5224152;28;20099;-81
2020/12/15 04:51:24;;;;;;;8.52;4.70;;;;;;;6.75;100.00;100094.56;5224649;28;20048;-80
2020/12/15 04:54:00;;;;;;;6.03;4.68;;;;;;;6.84;100.00;100092.56;5224878;28;20039;-80
2020/12/15 04:56:32;;;;;;;5.53;4.80;;;;;;;6.79;100.00;100098.78;5224309;28;20029;-80
2020/12/15 04:59:10;;;;;;;6.93;5.38;;;;;;;6.62;100.00;100091.44;5216104;28;20382;-80
2020/12/15 05:01:42;;;;;;;6.72;5.55;;;;;;;6.50;100.00;100089.19;5224007;28;20017;-80
2020/12/15 05:04:15;;;;;;;7.45;5.25;;;;;;;6.44;100.00;100104.06;5224130;28;20067;-80
2020/12/15 05:06:45;;;;;;;7.43;5.30;;;;;;;6.41;100.00;100094.63;5224080;28;20033;-80
2020/12/15 05:09:23;;;;;;;11.10;5.70;;;;;;;6.39;100.00;100091.22;5224186;28;20465;-80
2020/12/15 05:11:53;;;;;;;8.48;5.60;;;;;;;6.32;100.00;100094.88;5223873;28;20021;-80
2020/12/15 05:14:24;;;;;;;7.50;5.70;;;;;;;6.34;100.00;100094.81;5223540;28;20633;-80
2020/12/15 05:16:55;;;;;;;8.27;5.72;;;;;;;6.56;100.00;100093.38;5223106;28;20029;-80
2020/12/15 05:19:25;;;;;;;6.97;5.50;;;;;;;6.55;100.00;100102.03;5223287;28;20731;-80
2020/12/15 05:21:58;;;;;;;7.50;5.70;;;;;;;6.42;100.00;100098.06;5223746;28;20021;-80
2020/12/15 05:24:30;;;;;;;8.02;5.78;;;;;;;6.40;100.00;100092.06;5223813;28;20115;-80
2020/12/15 05:27:02;;;;;;;8.68;5.38;;;;;;;6.49;100.00;100102.19;5214711;28;20498;-80
2020/12/15 05:29:32;;;;;;;8.10;5.25;;;;;;;6.42;100.00;100098.91;5223478;28;20033;-80
2020/12/15 05:32:02;;;;;;;7.53;5.82;;;;;;;6.45;100.00;100098.81;5222119;28;20371;-80
2020/12/15 05:34:33;;;;;;;7.43;5.47;;;;;;;6.44;100.00;100093.69;5223305;28;20033;-81
2020/12/15 05:37:04;;;;;;;10.02;5.60;;;;;;;6.21;100.00;100096.00;5223486;28;20029;-80
2020/12/15 05:39:34;;;;;;;8.02;5.68;;;;;;;6.13;100.00;100108.34;5223458;28;20470;-80
2020/12/15 05:42:09;;;;;;;8.68;5.85;;;;;;;6.03;100.00;100106.84;5225303;28;20386;-80
2020/12/15 05:44:39;;;;;;;8.27;6.18;;;;;;;6.02;100.00;100098.25;5226909;28;20032;-80
2020/12/15 05:47:09;;;;;;;9.90;6.13;;;;;;;6.15;100.00;100096.19;5229730;28;20089;-80
2020/12/15 05:49:41;;;;;;;7.45;6.03;;;;;;;6.48;100.00;100095.31;5225816;28;20046;-80
2020/12/15 05:52:11;;;;;;;8.70;6.03;;;;;;;6.37;100.00;100095.59;5225192;28;20025;-80
2020/12/15 05:54:41;;;;;;;7.57;5.50;;;;;;;6.46;100.00;100086.72;5221913;28;20124;-80
2020/12/15 05:57:13;;;;;;;9.98;5.78;;;;;;;6.27;100.00;100099.31;5232169;28;20477;-80
2020/12/15 05:59:43;;;;;;;7.07;5.60;;;;;;;6.24;100.00;100095.97;5234337;28;20465;-80
2020/12/15 06:02:14;;;;;;;7.32;5.57;;;;;;;6.57;100.00;100103.69;5238593;28;20070;-81
2020/12/15 06:04:45;;;;;;;8.98;5.45;;;;;;;6.60;100.00;100095.81;5226978;28;20055;-80
2020/12/15 06:07:21;;;;;;;8.60;5.70;;;;;;;6.45;100.00;100095.41;5234304;28;20032;-80
2020/12/15 06:09:52;;;;;;;7.78;6.07;;;;;;;6.34;100.00;100092.22;5212727;28;20474;-80
2020/12/15 06:12:23;;;;;;;8.18;6.00;;;;;;;6.36;100.00;100093.91;5231043;28;20063;-80
2020/12/15 06:14:53;;;;;;;7.65;6.00;;;;;;;6.27;100.00;100093.28;5226697;28;20057;-80
2020/12/15 06:17:24;;;;;;;9.82;6.70;;;;;;;6.12;100.00;100097.09;5231050;28;20036;-80
2020/12/15 06:19:57;;;;;;;8.50;6.57;;;;;;;6.04;100.00;100093.88;5228524;28;20474;-80
2020/12/15 06:22:28;;;;;;;11.80;7.03;;;;;;;6.02;100.00;100098.25;5231815;28;20103;-80
2020/12/15 06:24:59;;;;;;;10.00;6.63;;;;;;;6.16;100.00;100097.88;5232455;28;20147;-80
2020/12/15 06:27:32;;;;;;;10.63;6.10;;;;;;;6.04;100.00;100111.16;5231927;28;20027;-80
2020/12/15 06:30:06;;;;;;;9.63;6.85;;;;;;;5.98;100.00;100111.31;5228722;28;20047;-80
2020/12/15 06:32:36;;;;;;;9.43;6.82;;;;;;;5.95;100.00;100104.44;5230991;28;20024;-80
2020/12/15 06:35:11;;;;;;;10.15;6.82;;;;;;;6.33;100.00;100100.91;5232349;28;20035;-80
2020/12/15 06:37:42;;;;;;;8.55;6.35;;;;;;;6.36;100.00;100098.22;5232592;28;20029;-80
2020/12/15 06:40:12;;;;;;;8.63;6.50;;;;;;;6.28;100.00;100103.59;5233345;28;20058;-80
2020/12/15 06:42:54;;;;;;;8.35;6.72;;;;;;;6.11;100.00;100104.94;5229030;28;20477;-80
2020/12/15 06:45:24;;;;;;;11.23;6.72;;;;;;;6.05;100.00;100099.91;5230253;28;20021;-80
2020/12/15 06:47:57;;;;;;;10.52;7.15;;;;;;;5.98;100.00;100108.72;5228359;28;20028;-80
2020/12/15 06:50:27;;;;;;;10.85;7.70;;;;;;;5.95;100.00;100101.03;5229445;28;20086;-80
2020/12/15 06:53:08;;;;;;;8.45;7.07;;;;;;;5.91;100.00;100102.00;5225225;28;20017;-80
2020/12/15 06:55:38;;;;;;;10.18;6.57;;;;;;;5.86;100.00;100103.81;5227454;28;20044;-80
2020/12/15 06:58:09;;;;;;;9.43;6.72;;;;;;;5.96;100.00;100107.91;5227553;28;20508;-80
2020/12/15 07:00:41;;;;;;;10.43;6.88;;;;;;;6.09;100.00;100101.53;5228320;28;20558;-80
2020/12/15 07:03:11;;;;;;;9.90;7.32;;;;;;;5.89;100.00;100107.22;5227337;28;20017;-80
2020/12/15 07:05:41;;;;;;;8.35;7.07;;;;;;;5.94;100.00;100117.47;5227308;28;20063;-80
2020/12/15 07:08:12;;;;;;;11.32;7.13;;;;;;;6.16;100.00;100114.31;5227659;28;20036;-80
2020/12/15 07:10:43;;;;;;;10.23;7.03;;;;;;;6.14;100.00;100125.59;5226774;28;20168;-80
2020/12/15 07:13:14;;;;;;;11.20;7.72;;;;;;;6.17;100.00;100129.00;5226330;28;20119;-80
2020/12/15 07:15:44;;;;;;;10.50;7.20;;;;;;;6.22;100.00;100123.69;5226415;28;20121;-80
2020/12/15 07:18:16;;;;;;;10.75;7.18;;;;;;;6.23;100.00;100115.84;5225915;28;20433;-79
2020/12/15 07:20:47;;;;;;;9.15;6.78;;;;;;;6.18;100.00;100112.53;5226056;28;20570;-78
2020/12/15 07:23:17;;;;;;;9.77;7.25;;;;;;;6.28;100.00;100111.38;5225817;28;20120;-77
2020/12/15 07:25:48;;;;;;;10.80;6.97;;;;;;;6.17;100.00;100121.22;5226491;28;20078;-77
2020/12/15 07:28:20;;;;;;;11.75;7.40;;;;;;;6.09;100.00;100117.09;5225772;28;20028;-77
2020/12/15 07:30:50;;;;;;;10.63;7.45;;;;;;;6.03;100.00;100112.91;5226347;28;20483;-77
2020/12/15 07:33:20;;;;;;;10.85;7.10;;;;;;;6.09;100.00;100110.16;5226175;28;20082;-77
2020/12/15 07:35:50;;;;;;;8.75;7.07;;;;;;;5.98;100.00;100117.38;5226461;28;20040;-77
2020/12/15 07:38:21;;;;;;;9.98;7.07;;;;;;;6.07;100.00;100118.88;5223762;28;20025;-77
2020/12/15 07:40:52;;;;;;;9.82;7.35;;;;;;;6.03;100.00;100132.78;5218515;28;20039;-77
2020/12/15 07:43:22;;;;;;;9.43;7.10;;;;;;;6.00;100.00;100127.69;5224176;28;20108;-77
2020/12/15 07:45:53;;;;;;;10.77;7.57;;;;;;;6.01;100.00;100125.06;5224330;28;20021;-77
2020/12/15 07:48:27;;;;;;;10.40;7.55;;;;;;;6.11;100.00;100120.50;5226049;28;20021;-77
2020/12/15 07:51:04;;;;;;;10.90;8.27;;;;;;;6.06;100.00;100132.75;5225278;28;20417;-77
2020/12/15 07:53:34;;;;;;;10.45;7.38;;;;;;;6.09;100.00;100132.66;5226030;28;20025;-77
2020/12/15 07:56:06;;;;;;;12.02;7.72;;;;;;;6.15;100.00;100129.91;5224288;28;20063;-77
2020/12/15 07:58:36;;;;;;;13.55;7.80;;;;;;;6.15;100.00;100133.38;5226677;28;20056;-77
2020/12/15 08:01:08;;;;;;;12.15;8.10;;;;;;;6.24;100.00;100129.69;5235765;28;20091;-77
2020/12/15 08:03:38;;;;;;;10.27;7.57;;;;;;;6.49;100.00;100134.22;5240904;28;20094;-77
2020/12/15 08:06:10;;;;;;;11.10;8.02;;;;;;;6.49;100.00;100122.97;5225167;28;20474;-77
2020/12/15 08:08:44;;;;;;;13.52;8.45;;;;;;;6.37;100.00;100131.06;5222390;28;20116;-77
2020/12/15 08:11:18;;;;;;;15.98;8.05;;;;;;;6.32;100.00;100132.94;5225147;28;20516;-77
2020/12/15 08:13:49;;;;;;;11.07;8.07;;;;;;;6.25;100.00;100123.59;5223554;28;20025;-77
2020/12/15 08:16:20;;;;;;;9.90;7.95;;;;;;;6.17;100.00;100136.78;5224228;28;20029;-77
2020/12/15 08:18:57;;;;;;;11.90;8.35;;;;;;;6.14;100.00;100141.19;5224027;28;20039;-77
2020/12/15 08:21:41;;;;;;;11.25;8.43;;;;;;;6.18;100.00;100140.19;5225178;28;20048;-81
2020/12/15 08:24:14;;;;;;;13.57;8.80;;;;;;;6.34;100.00;100136.34;5225560;28;20036;-77
2020/12/15 08:26:44;;;;;;;13.73;9.20;;;;;;;6.39;100.00;100129.31;5224940;28;20526;-80
2020/12/15 08:29:15;;;;;;;13.45;8.90;;;;;;;6.47;100.00;100142.91;5225254;28;20139;-79
2020/12/15 08:31:45;;;;;;;13.27;8.50;;;;;;;6.52;100.00;100128.94;5225296;28;20524;-77
2020/12/15 08:34:18;;;;;;;11.13;8.20;;;;;;;6.57;100.00;100136.59;5225418;28;20024;-80
2020/12/15 08:36:53;;;;;;;13.02;8.70;;;;;;;6.62;100.00;100130.38;5224982;28;20382;-77
2020/12/15 08:39:26;;;;;;;12.15;8.60;;;;;;;6.66;100.00;100137.22;5225211;28;20036;-77
2020/12/15 08:41:58;;;;;;;12.23;8.23;;;;;;;6.95;100.00;100131.22;5223387;28;20231;-77
2020/12/15 08:44:34;;;;;;;10.15;7.85;;;;;;;7.11;100.00;100141.13;5224606;28;20386;-77
2020/12/15 08:47:05;;;;;;;11.95;8.10;;;;;;;7.27;100.00;100134.56;5224726;28;20028;-76
2020/12/15 08:49:35;;;;;;;10.52;7.55;;;;;;;7.38;100.00;100141.16;5224922;28;20374;-77
2020/12/15 08:52:05;;;;;;;11.57;7.85;;;;;;;7.16;100.00;100148.78;5224634;28;20078;-77
2020/12/15 08:54:42;;;;;;;16.05;9.68;;;;;;;7.05;100.00;100150.81;5223751;28;20032;-76
2020/12/15 08:57:14;;;;;;;16.05;10.23;;;;;;;7.10;100.00;100148.97;5224688;28;20041;-78
2020/12/15 08:59:44;;;;;;;12.93;9.02;;;;;;;7.09;100.00;100150.69;5224601;28;20441;-79
2020/12/15 09:02:19;;;;;;;9.85;7.88;;;;;;;7.09;100.00;100155.91;5224676;28;20079;-79
2020/12/15 09:04:50;;;;;;;11.38;8.30;;;;;;;7.04;100.00;100154.31;5224331;28;20025;-77
2020/12/15 09:07:21;;;;;;;13.40;7.90;;;;;;;7.00;100.00;100155.31;5224027;28;20112;-77
2020/12/15 09:09:51;;;;;;;11.70;8.15;;;;;;;6.99;100.00;100156.19;5224539;28;20040;-76
2020/12/15 09:12:21;;;;;;;11.63;7.90;;;;;;;6.99;100.00;100151.00;5224049;28;20021;-77
2020/12/15 09:14:59;;;;;;;12.35;7.85;;;;;;;7.03;100.00;100142.22;5224277;28;20033;-77
2020/12/15 09:17:30;;;;;;;11.10;7.78;;;;;;;7.17;100.00;100146.16;5224141;28;20442;-76
2020/12/15 09:20:00;;;;;;;9.50;7.22;;;;;;;7.29;100.00;100149.25;5224608;28;20028;-80
2020/12/15 09:22:31;;;;;;;11.15;7.78;;;;;;;7.47;100.00;100148.69;5223705;28;20035;-79
2020/12/15 09:25:11;;;;;;;11.55;8.05;;;;;;;7.59;100.00;100163.06;5226820;28;20432;-77
2020/12/15 09:27:48;;;;;;;11.23;7.38;;;;;;;7.63;100.00;100160.34;5224038;28;20040;-78
2020/12/15 09:30:20;;;;;;;11.38;7.90;;;;;;;7.58;100.00;100164.84;5223978;28;20032;-79
2020/12/15 09:32:51;;;;;;;12.05;7.40;;;;;;;7.64;100.00;100154.25;5222858;28;20039;-78
2020/12/15 09:35:21;;;;;;;11.60;7.72;;;;;;;7.69;100.00;100154.13;5224180;28;20112;-77
2020/12/15 09:37:51;;;;;;;11.40;7.65;;;;;;;7.72;100.00;100154.84;5230980;28;20378;-80
2020/12/15 09:40:23;;;;;;;11.32;7.72;;;;;;;7.75;100.00;100161.72;5244434;28;20028;-78
2020/12/15 09:42:55;;;;;;;12.30;8.20;;;;;;;7.79;100.00;100158.09;5244208;28;20461;-78
2020/12/15 09:45:26;;;;;;;10.95;7.53;;;;;;;7.96;100.00;100166.25;5244096;28;20056;-79
2020/12/15 09:47:59;;;;;;;12.35;7.10;;;;;;;7.95;100.00;100175.81;5244427;28;20524;-78
2020/12/15 09:50:33;;;;;;;11.45;7.15;;;;;;;7.94;100.00;100178.44;5244150;28;20035;-79
2020/12/15 09:53:03;;;;;;;9.65;7.22;;;;;;;7.87;100.00;100174.34;5243980;28;20020;-77
2020/12/15 09:55:34;;;;;;;9.93;7.15;;;;;;;7.82;100.00;100169.28;5244339;28;20489;-78
2020/12/15 09:58:04;;;;;;;10.50;7.07;;;;;;;7.81;100.00;100167.59;5244239;28;20497;-78
2020/12/15 10:00:34;;;;;;;8.80;6.72;;;;;;;7.83;100.00;100155.38;5244268;28;20580;-78
2020/12/15 10:03:05;;;;;;;9.93;6.93;;;;;;;7.83;100.00;100165.78;5244009;28;20108;-77
2020/12/15 10:05:36;;;;;;;15.18;8.55;;;;;;;7.90;100.00;100166.44;5226348;28;20033;-78
2020/12/15 10:08:06;;;;;;;10.07;7.25;;;;;;;8.02;100.00;100166.91;5223195;28;20029;-78
2020/12/15 10:10:36;;;;;;;9.02;6.93;;;;;;;8.03;100.00;100163.41;5223095;28;20028;-77
2020/12/15 10:13:07;;;;;;;11.82;8.13;;;;;;;8.08;100.00;100166.69;5222823;28;20155;-79
2020/12/15 10:15:37;;;;;;;10.77;6.78;;;;;;;8.15;100.00;100157.81;5221703;28;20041;-79
2020/12/15 10:18:09;;;;;;;10.57;6.97;;;;;;;8.33;100.00;100146.81;5222186;28;20033;-77
2020/12/15 10:20:40;;;;;;;10.18;6.38;;;;;;;8.59;100.00;100138.97;5223304;28;20772;-79
2020/12/15 10:23:10;;;;;;;9.18;6.45;;;;;;;8.77;100.00;100138.34;5222820;28;20036;-77
2020/12/15 10:25:41;;;;;;;10.70;6.47;;;;;;;8.70;100.00;100157.69;5223161;28;20051;-78
2020/12/15 10:28:12;;;;;;;7.53;6.35;;;;;;;8.79;100.00;100153.91;5227313;28;20031;-78
2020/12/15 10:30:42;;;;;;;8.75;6.00;;;;;;;8.77;100.00;100161.81;5223920;28;20021;-80
2020/12/15 10:33:12;;;;;;;7.70;4.88;;;;;;;8.89;100.00;100163.94;5223324;28;20017;-77
2020/12/15 10:35:42;;;;;;;6.90;4.53;;;;;;;9.07;100.00;100159.84;5222935;28;20025;-77
2020/12/15 10:38:13;;;;;;;6.80;4.78;;;;;;;9.24;100.00;100172.22;5223437;28;20017;-77
2020/12/15 10:40:46;;;;;;;7.82;4.85;;;;;;;9.30;100.00;100171.16;5222909;28;20037;-78
2020/12/15 10:43:17;;;;;;;7.68;5.00;;;;;;;9.33;100.00;100192.72;5222617;28;20540;-77
2020/12/15 10:45:47;;;;;;;7.05;5.00;;;;;;;9.35;100.00;100190.91;5222592;28;20045;-78
2020/12/15 10:48:17;;;;;;;8.35;5.40;;;;;;;9.56;100.00;100189.28;5221411;28;20033;-77
2020/12/15 10:50:48;;;;;;;8.82;4.93;;;;;;;9.59;100.00;100184.78;5230094;28;20040;-77
2020/12/15 10:53:18;;;;;;;7.38;4.32;;;;;;;9.59;100.00;100178.72;5243002;28;20474;-81
2020/12/15 10:55:50;;;;;;;7.90;4.85;;;;;;;9.77;100.00;100167.56;5243649;28;20028;-77
2020/12/15 10:58:20;;;;;;;6.60;4.95;;;;;;;9.70;100.00;100173.94;5242869;28;20098;-79
2020/12/15 11:00:51;;;;;;;9.63;5.80;;;;;;;9.66;100.00;100174.97;5240557;28;20032;-79
2020/12/15 11:03:21;;;;;;;7.85;5.20;;;;;;;9.56;100.00;100184.91;5222527;28;20036;-78
2020/12/15 11:05:51;;;;;;;10.48;6.13;;;;;;;9.57;100.00;100189.22;5222657;28;20043;-77
2020/12/15 11:08:22;;;;;;;8.05;5.38;;;;;;;9.72;100.00;100190.38;5222799;28;20104;-77
2020/12/15 11:10:53;;;;;;;8.82;5.22;;;;;;;9.77;100.00;100196.28;5222757;28;20041;-77
2020/12/15 11:13:23;;;;;;;8.88;5.60;;;;;;;9.70;100.00;100189.59;5222586;28;20024;-77
2020/12/15 11:15:54;;;;;;;8.30;5.10;;;;;;;9.71;100.00;100186.09;5221602;28;20017;-77
2020/12/15 11:18:24;;;;;;;7.88;5.38;;;;;;;9.68;100.00;100191.44;5222698;28;20068;-77
2020/12/15 11:20:54;;;;;;;9.60;5.57;;;;;;;9.60;100.00;100190.84;5222020;28;20025;-77
2020/12/15 11:23:25;;;;;;;8.15;5.30;;;;;;;9.57;100.00;100181.41;5222743;28;20017;-78
2020/12/15 11:25:55;;;;;;;7.18;4.88;;;;;;;9.61;100.00;100180.38;5222229;28;20352;-79
2020/12/15 11:28:25;;;;;;;8.48;5.18;;;;;;;9.77;100.00;100188.44;5222001;28;20471;-80
2020/12/15 11:30:55;;;;;;;8.55;4.88;;;;;;;9.65;100.00;100192.38;5224603;28;20033;-78
2020/12/15 11:33:26;;;;;;;7.28;4.95;;;;;;;9.55;100.00;100182.34;5225580;28;20024;-78
2020/12/15 11:35:56;;;;;;;7.32;5.03;;;;;;;9.46;100.00;100182.72;5226049;28;20513;-80
2020/12/15 11:38:26;;;;;;;7.63;5.00;;;;;;;9.39;100.00;100176.00;5226016;28;20052;-79